Time;durP1;ratioP1;P1;durP2;ratioP2;P2;SDS_P1;SDS_P2;PMS_P1;PMS_P2;Temp;Humidity;BMP_temperature;BMP_pressure;BME280_temperature;BME280_humidity;BME280_pressure;Samples;Min_cycle;Max_cycle;Signal;HPM_P1;HPM_P2
2023/07/01 00:02:28;;;;;;;5.32;2.97;;;16.70;99.90;;;;;;7347097;32;20270;-54
2023/07/01 00:06:29;;;;;;;8.00;3.42;;;16.70;99.90;;;;;;7352941;32;20250;-54
2023/07/01 00:10:31;;;;;;;5.25;2.85;;;16.70;99.90;;;;;;7342823;32;20543;-54
2023/07/01 00:14:33;;;;;;;6.22;2.92;;;16.80;99.90;;;;;;7354714;32;20137;-54
2023/07/01 00:18:35;;;;;;;5.90;2.90;;;16.80;99.90;;;;;;7350451;32;20111;-54
2023/07/01 00:22:37;;;;;;;4.93;2.90;;;16.80;99.90;;;;;;7354090;32;20470;-55
2023/07/01 00:26:38;;;;;;;6.50;3.05;;;16.70;99.90;;;;;;7355471;32;20194;-54
2023/07/01 00:30:40;;;;;;;9.80;3.15;;;16.70;99.90;;;;;;7351320;32;20301;-54
2023/07/01 00:34:42;;;;;;;6.57;2.92;;;16.80;99.90;;;;;;7348949;32;20167;-54
2023/07/01 00:38:44;;;;;;;9.07;2.90;;;16.80;99.90;;;;;;7347299;32;20490;-54
2023/07/01 00:42:45;;;;;;;6.30;3.15;;;16.80;99.90;;;;;;7346186;32;20199;-55
2023/07/01 00:46:47;;;;;;;6.30;2.80;;;16.90;99.90;;;;;;7350095;32;20115;-56
2023/07/01 00:50:49;;;;;;;6.07;3.00;;;16.80;99.90;;;;;;7349540;32;20138;-55
2023/07/01 00:54:51;;;;;;;6.57;3.12;;;16.90;99.90;;;;;;7349597;32;20198;-55
2023/07/01 00:58:53;;;;;;;5.25;2.90;;;16.90;99.90;;;;;;7345380;32;20810;-56
2023/07/01 01:03:07;;;;;;;6.70;2.75;;;16.90;99.90;;;;;;7346920;32;20609;-56
2023/07/01 01:07:29;;;;;;;5.80;2.75;;;16.90;99.90;;;;;;7350059;32;20589;-54
2023/07/01 01:11:32;;;;;;;4.93;2.95;;;17.00;99.90;;;;;;7346287;32;20111;-54
2023/07/01 01:15:34;;;;;;;3.37;2.53;;;17.00;99.90;;;;;;7351174;32;20124;-54
2023/07/01 01:20:12;;;;;;;6.10;2.70;;;17.00;99.90;;;;;;7351776;32;20202;-55
2023/07/01 01:24:14;;;;;;;4.40;2.50;;;17.00;99.90;;;;;;7341751;32;20122;-54
2023/07/01 01:28:16;;;;;;;4.85;2.35;;;17.10;99.90;;;;;;7351523;32;20317;-55
2023/07/01 01:32:18;;;;;;;5.90;2.60;;;17.00;99.90;;;;;;7347996;32;20197;-55
2023/07/01 01:36:37;;;;;;;3.58;2.45;;;17.00;99.90;;;;;;7353322;32;20186;-55
2023/07/01 01:40:57;;;;;;;5.12;2.55;;;17.00;99.90;;;;;;7355362;32;20131;-55
2023/07/01 01:45:00;;;;;;;3.33;2.00;;;17.00;99.90;;;;;;7352802;32;20103;-55
2023/07/01 01:49:04;;;;;;;6.55;2.37;;;17.00;99.90;;;;;;7354911;32;20162;-55
2023/07/01 01:53:06;;;;;;;4.03;2.20;;;17.10;99.90;;;;;;7352582;32;20160;-55
2023/07/01 01:57:08;;;;;;;6.78;2.05;;;17.10;99.90;;;;;;7353258;32;20123;-55
2023/07/01 02:01:10;;;;;;;3.25;2.10;;;17.10;99.90;;;;;;7353435;32;20115;-55
2023/07/01 02:05:11;;;;;;;3.83;2.30;;;17.10;99.90;;;;;;7353489;32;20133;-56
2023/07/01 02:09:13;;;;;;;3.53;2.30;;;17.00;99.90;;;;;;7358183;32;20793;-55
2023/07/01 02:13:15;;;;;;;4.47;2.58;;;17.10;99.90;;;;;;7354422;32;20550;-56
2023/07/01 02:17:17;;;;;;;4.78;2.00;;;17.10;99.90;;;;;;7353226;32;20107;-55
2023/07/01 02:21:18;;;;;;;5.28;2.35;;;17.10;99.90;;;;;;7358651;32;20210;-56
2023/07/01 02:25:20;;;;;;;11.35;2.58;;;17.20;99.90;;;;;;7357032;32;20115;-55
2023/07/01 02:29:22;;;;;;;8.52;2.25;;;17.20;99.90;;;;;;7355818;32;20119;-55
2023/07/01 02:33:24;;;;;;;6.03;2.08;;;17.20;99.90;;;;;;7351783;32;20163;-56
2023/07/01 02:37:25;;;;;;;5.20;1.87;;;17.20;99.90;;;;;;7357883;32;20507;-56
2023/07/01 02:41:27;;;;;;;3.70;1.95;;;17.20;99.90;;;;;;7358809;32;20298;-55
2023/07/01 02:45:29;;;;;;;2.70;1.58;;;17.20;99.90;;;;;;7346160;32;20316;-55
2023/07/01 02:49:31;;;;;;;4.20;1.75;;;17.20;99.90;;;;;;7354029;32;20494;-55
2023/07/01 02:53:32;;;;;;;3.92;1.98;;;17.30;99.90;;;;;;7352748;32;20115;-55
2023/07/01 02:57:34;;;;;;;5.97;1.90;;;17.30;99.90;;;;;;7350337;32;20112;-55
2023/07/01 03:01:36;;;;;;;4.62;1.70;;;17.40;99.90;;;;;;7354996;32;20298;-55
2023/07/01 03:05:39;;;;;;;3.08;1.60;;;17.50;99.90;;;;;;7356510;32;20171;-56
2023/07/01 03:09:40;;;;;;;2.97;1.77;;;17.60;99.90;;;;;;7356213;32;20103;-55
2023/07/01 03:13:42;;;;;;;4.00;1.87;;;17.60;99.90;;;;;;7352325;32;20272;-54
2023/07/01 03:17:44;;;;;;;6.25;1.85;;;17.50;99.90;;;;;;7349854;32;20528;-55
2023/07/01 03:21:46;;;;;;;2.80;1.37;;;17.60;99.90;;;;;;7353986;32;20138;-55
2023/07/01 03:25:48;;;;;;;3.40;1.60;;;17.50;99.90;;;;;;7350238;32;20111;-56
2023/07/01 03:29:49;;;;;;;3.85;1.50;;;17.60;99.90;;;;;;7351241;32;20111;-55
2023/07/01 03:33:51;;;;;;;4.82;1.67;;;17.60;99.90;;;;;;7353348;32;20180;-56
2023/07/01 03:37:53;;;;;;;2.58;1.48;;;17.70;99.90;;;;;;7356839;32;20270;-55
2023/07/01 03:41:55;;;;;;;2.92;1.60;;;17.70;99.90;;;;;;7347863;32;20214;-56
2023/07/01 03:45:57;;;;;;;5.18;1.70;;;17.70;99.90;;;;;;7347747;32;20239;-55
2023/07/01 03:49:59;;;;;;;2.25;1.62;;;17.80;99.90;;;;;;7348046;32;20657;-56
2023/07/01 03:54:00;;;;;;;5.20;1.58;;;17.80;99.90;;;;;;7352775;32;20234;-55
2023/07/01 03:58:04;;;;;;;6.32;1.55;;;17.80;99.90;;;;;;7349891;32;20183;-56
2023/07/01 04:02:06;;;;;;;2.72;1.42;;;17.80;99.90;;;;;;7349555;32;20467;-55
2023/07/01 04:06:08;;;;;;;4.90;1.65;;;17.80;99.90;;;;;;7349367;32;20103;-56
2023/07/01 04:10:11;;;;;;;2.95;1.58;;;17.80;99.90;;;;;;7352012;32;20115;-55
2023/07/01 04:14:15;;;;;;;2.05;1.33;;;17.90;99.90;;;;;;7352299;32;20399;-56
2023/07/01 04:18:16;;;;;;;5.40;1.60;;;17.80;99.90;;;;;;7354558;32;20576;-55
2023/07/01 04:22:19;;;;;;;6.12;1.60;;;17.90;99.90;;;;;;7354948;32;20099;-55
2023/07/01 04:26:21;;;;;;;4.05;1.50;;;17.90;99.90;;;;;;7348038;32;20147;-57
2023/07/01 04:30:23;;;;;;;4.25;1.70;;;17.90;99.90;;;;;;7344472;32;20227;-56
2023/07/01 04:34:25;;;;;;;3.35;1.80;;;17.90;99.90;;;;;;7350348;32;20161;-55
2023/07/01 04:38:27;;;;;;;5.70;1.90;;;17.90;99.90;;;;;;7354685;32;20107;-55
2023/07/01 04:42:29;;;;;;;3.90;1.85;;;17.90;99.90;;;;;;7352867;32;20229;-55
2023/07/01 04:46:31;;;;;;;3.15;1.87;;;17.90;99.90;;;;;;7351112;32;20187;-55
2023/07/01 04:50:33;;;;;;;3.50;1.45;;;17.90;99.90;;;;;;7350682;32;20559;-55
2023/07/01 04:54:35;;;;;;;3.17;1.67;;;18.00;99.90;;;;;;7353914;32;20111;-56
2023/07/01 04:58:37;;;;;;;5.47;1.60;;;18.00;99.90;;;;;;7355541;32;20130;-55
2023/07/01 05:02:38;;;;;;;4.97;2.10;;;18.10;99.90;;;;;;7355355;32;20206;-55
2023/07/01 05:06:40;;;;;;;3.65;1.90;;;18.10;99.90;;;;;;7350042;32;20115;-56
2023/07/01 05:10:42;;;;;;;6.25;2.00;;;18.10;99.90;;;;;;7347828;32;20169;-56
2023/07/01 05:14:44;;;;;;;4.78;2.00;;;18.20;99.90;;;;;;7351405;32;20399;-55
2023/07/01 05:18:46;;;;;;;5.07;1.90;;;18.30;99.90;;;;;;7350793;32;20133;-55
2023/07/01 05:22:47;;;;;;;4.85;1.90;;;18.30;99.90;;;;;;7348630;32;20328;-56
2023/07/01 05:26:50;;;;;;;5.00;1.87;;;18.30;99.90;;;;;;7341422;32;20252;-56
2023/07/01 05:30:52;;;;;;;7.10;2.10;;;18.40;99.90;;;;;;7346774;32;20465;-57
2023/07/01 05:34:54;;;;;;;5.30;2.22;;;18.40;99.90;;;;;;7344001;32;20151;-56
2023/07/01 05:38:56;;;;;;;4.25;1.73;;;18.40;99.90;;;;;;7353540;32;20757;-55
2023/07/01 05:42:58;;;;;;;5.35;2.00;;;18.40;99.90;;;;;;7350171;32;20108;-56
2023/07/01 05:46:59;;;;;;;5.95;2.45;;;18.40;99.90;;;;;;7344629;32;20182;-57
2023/07/01 05:51:01;;;;;;;5.90;2.28;;;18.40;99.90;;;;;;7346259;32;20168;-56
2023/07/01 05:55:03;;;;;;;5.97;2.05;;;18.40;99.90;;;;;;7353530;32;20111;-55
2023/07/01 05:59:05;;;;;;;7.30;2.00;;;18.40;99.90;;;;;;7343831;32;20127;-56
2023/07/01 06:03:08;;;;;;;6.55;1.62;;;18.40;99.90;;;;;;7343633;32;20156;-55
2023/07/01 06:07:09;;;;;;;4.87;2.10;;;18.40;99.90;;;;;;7346174;32;20598;-55
2023/07/01 06:11:11;;;;;;;3.60;1.80;;;18.20;99.90;;;;;;7353727;32;20115;-56
2023/07/01 06:15:13;;;;;;;5.90;2.33;;;18.20;99.90;;;;;;7352038;32;20139;-55
2023/07/01 06:19:15;;;;;;;6.85;2.05;;;18.10;99.90;;;;;;7342206;32;20135;-55
2023/07/01 06:23:17;;;;;;;6.70;2.05;;;18.00;99.90;;;;;;7349373;32;20107;-55
2023/07/01 06:27:19;;;;;;;4.45;2.00;;;17.90;99.90;;;;;;7354787;32;20149;-55
2023/07/01 06:31:20;;;;;;;5.80;2.30;;;17.70;99.90;;;;;;7348098;32;20279;-55
2023/07/01 06:35:22;;;;;;;5.82;2.30;;;17.60;99.90;;;;;;7352865;32;20150;-57
2023/07/01 06:39:24;;;;;;;5.62;2.12;;;17.40;99.90;;;;;;7357928;32;20448;-57
2023/07/01 06:43:26;;;;;;;4.15;1.48;;;17.10;99.90;;;;;;7350908;32;20130;-56
2023/07/01 06:47:27;;;;;;;4.97;2.20;;;17.00;99.90;;;;;;7348330;32;20127;-56
2023/07/01 06:51:29;;;;;;;7.60;2.30;;;16.90;99.90;;;;;;7351195;32;20194;-56
2023/07/01 06:55:32;;;;;;;2.80;1.73;;;16.90;99.90;;;;;;7346892;32;20164;-56
2023/07/01 06:59:33;;;;;;;3.25;1.95;;;16.90;99.90;;;;;;7350978;32;20171;-56
2023/07/01 07:03:39;;;;;;;4.55;2.10;;;16.80;99.90;;;;;;7357636;32;20174;-56
2023/07/01 07:07:41;;;;;;;4.68;2.37;;;16.90;99.90;;;;;;7350502;32;20240;-57
2023/07/01 07:11:43;;;;;;;3.37;2.35;;;16.80;99.90;;;;;;7350477;32;20119;-57
2023/07/01 07:15:44;;;;;;;3.65;1.92;;;16.90;99.90;;;;;;7356920;32;20169;-56
2023/07/01 07:19:46;;;;;;;3.83;2.58;;;16.80;99.90;;;;;;7356962;32;20514;-56
2023/07/01 07:23:48;;;;;;;7.90;2.37;;;16.90;99.90;;;;;;7355953;32;20118;-56
2023/07/01 07:27:50;;;;;;;2.53;1.67;;;16.80;99.90;;;;;;7354679;32;20202;-56
2023/07/01 07:31:52;;;;;;;6.22;1.85;;;16.80;99.90;;;;;;7355830;32;20223;-57
2023/07/01 07:35:53;;;;;;;4.37;2.00;;;16.80;99.90;;;;;;7348147;32;20328;-56
2023/07/01 07:39:58;;;;;;;4.50;2.25;;;16.90;99.90;;;;;;7350891;32;20111;-56
2023/07/01 07:44:01;;;;;;;5.43;2.08;;;16.90;99.90;;;;;;7354960;32;20172;-56
2023/07/01 07:48:03;;;;;;;7.37;2.53;;;16.90;99.90;;;;;;7346680;32;20543;-57
2023/07/01 07:52:05;;;;;;;4.50;2.05;;;16.90;99.90;;;;;;7348599;32;20590;-58
2023/07/01 07:56:06;;;;;;;6.22;2.05;;;16.90;99.90;;;;;;7354497;32;20274;-56
2023/07/01 08:00:10;;;;;;;7.10;1.90;;;17.00;99.90;;;;;;7343923;32;20942;-56
2023/07/01 08:04:11;;;;;;;4.95;2.15;;;17.00;99.90;;;;;;7351670;32;20305;-58
2023/07/01 08:08:13;;;;;;;7.12;2.60;;;17.10;99.90;;;;;;7346706;32;20135;-57
2023/07/01 08:12:15;;;;;;;7.90;2.25;;;17.10;99.90;;;;;;7350164;32;20119;-56
2023/07/01 08:16:17;;;;;;;4.90;2.15;;;17.10;99.90;;;;;;7349160;32;20103;-57
2023/07/01 08:20:19;;;;;;;4.28;2.00;;;17.10;99.90;;;;;;7352454;32;20205;-56
2023/07/01 08:24:21;;;;;;;3.83;2.28;;;16.90;99.90;;;;;;7342565;32;20929;-63
2023/07/01 08:28:23;;;;;;;4.78;2.10;;;17.00;99.90;;;;;;7341941;32;20847;-64
2023/07/01 08:32:25;;;;;;;3.25;2.05;;;17.10;99.90;;;;;;7351619;32;20198;-57
2023/07/01 08:36:26;;;;;;;5.28;2.15;;;17.20;99.90;;;;;;7346937;32;20190;-56
2023/07/01 08:40:28;;;;;;;5.12;1.90;;;17.10;99.90;;;;;;7347358;32;20116;-55
2023/07/01 08:44:30;;;;;;;3.75;1.95;;;17.10;99.90;;;;;;7348858;32;20271;-55
2023/07/01 08:48:32;;;;;;;4.70;2.05;;;17.10;99.90;;;;;;7352768;32;20133;-56
2023/07/01 08:52:42;;;;;;;6.35;2.00;;;17.10;99.90;;;;;;7346898;32;20180;-55
2023/07/01 08:56:48;;;;;;;3.20;2.33;;;17.10;99.90;;;;;;7348128;32;20142;-56
2023/07/01 09:00:49;;;;;;;3.78;2.40;;;17.00;99.90;;;;;;7348374;32;20103;-55
2023/07/01 09:04:51;;;;;;;4.10;2.47;;;16.90;99.90;;;;;;7340653;32;20155;-55
2023/07/01 09:08:54;;;;;;;7.28;3.33;;;16.90;99.90;;;;;;7349649;32;20119;-55
2023/07/01 09:13:17;;;;;;;4.75;3.03;;;16.80;99.90;;;;;;7350556;32;20111;-56
2023/07/01 09:17:28;;;;;;;6.65;2.87;;;16.80;99.90;;;;;;7347237;32;20111;-57
2023/07/01 09:21:32;;;;;;;5.65;3.12;;;16.80;99.90;;;;;;7345999;32;20156;-54
2023/07/01 09:25:34;;;;;;;4.72;3.15;;;16.90;99.90;;;;;;7345450;32;20125;-55
2023/07/01 09:29:40;;;;;;;5.62;2.87;;;16.80;99.90;;;;;;7354750;32;20115;-55
2023/07/01 09:34:01;;;;;;;5.10;2.80;;;16.80;99.90;;;;;;7355149;32;20123;-57
2023/07/01 09:38:02;;;;;;;5.93;3.22;;;16.80;99.90;;;;;;7347185;32;20131;-56
2023/07/01 09:42:05;;;;;;;3.62;3.03;;;16.70;99.90;;;;;;7351427;32;20169;-57
2023/07/01 09:46:08;;;;;;;4.10;3.20;;;16.70;99.90;;;;;;7350145;32;20347;-56
2023/07/01 09:50:23;;;;;;;3.55;3.12;;;16.80;99.90;;;;;;7352511;32;20485;-57
2023/07/01 09:54:30;;;;;;;4.90;3.25;;;16.80;99.90;;;;;;7348711;32;20654;-57
2023/07/01 09:58:32;;;;;;;4.70;4.03;;;16.90;99.90;;;;;;7346348;32;20415;-57
2023/07/01 10:02:34;;;;;;;5.90;3.90;;;16.90;99.90;;;;;;7352770;32;20130;-57
2023/07/01 10:06:36;;;;;;;4.85;4.00;;;17.00;99.90;;;;;;7345237;32;20540;-56
2023/07/01 10:10:37;;;;;;;4.65;3.35;;;17.10;99.90;;;;;;7348631;32;20186;-57
2023/07/01 10:14:40;;;;;;;3.78;3.12;;;17.10;99.90;;;;;;7354934;32;20134;-57
2023/07/01 10:18:42;;;;;;;3.87;3.40;;;17.10;99.90;;;;;;7354224;32;20193;-57
2023/07/01 10:22:54;;;;;;;4.70;3.45;;;17.00;99.90;;;;;;7355867;32;20134;-56
2023/07/01 10:26:55;;;;;;;3.37;2.97;;;17.10;99.90;;;;;;7349804;32;20135;-56
2023/07/01 10:30:57;;;;;;;2.62;2.40;;;17.20;99.90;;;;;;7352774;32;20242;-56
2023/07/01 10:34:59;;;;;;;5.72;2.47;;;17.20;99.90;;;;;;7354977;32;20629;-56
2023/07/01 10:39:40;;;;;;;4.43;2.40;;;17.30;99.90;;;;;;7352466;32;20225;-56
2023/07/01 10:43:41;;;;;;;1.80;1.67;;;17.50;99.90;;;;;;7357898;32;20146;-57
2023/07/01 10:47:49;;;;;;;2.45;1.98;;;17.50;99.90;;;;;;7351261;32;20115;-57
2023/07/01 10:51:54;;;;;;;5.78;1.70;;;17.60;99.90;;;;;;7353467;32;20340;-56
2023/07/01 10:56:12;;;;;;;2.47;1.27;;;17.60;99.90;;;;;;7357206;32;20137;-56
2023/07/01 11:00:37;;;;;;;1.73;1.30;;;17.60;99.90;;;;;;7352084;32;20477;-55
2023/07/01 11:04:51;;;;;;;1.30;1.05;;;17.50;99.90;;;;;;7347675;32;20164;-56
2023/07/01 11:08:56;;;;;;;1.48;1.05;;;17.50;99.90;;;;;;7353163;32;20221;-55
2023/07/01 11:13:03;;;;;;;1.35;1.02;;;17.50;99.90;;;;;;7355759;32;20111;-56
2023/07/01 11:17:07;;;;;;;1.35;1.00;;;17.40;99.90;;;;;;7351475;32;20264;-56
2023/07/01 11:21:12;;;;;;;1.30;1.10;;;17.30;99.90;;;;;;7350920;32;20242;-56
2023/07/01 11:25:13;;;;;;;2.37;1.12;;;17.40;99.90;;;;;;7350911;32;20533;-56
2023/07/01 11:29:16;;;;;;;1.55;0.88;;;17.40;99.90;;;;;;7355886;32;20584;-57
2023/07/01 11:33:18;;;;;;;3.40;1.20;;;17.40;99.90;;;;;;7344809;32;20115;-55
2023/07/01 11:37:25;;;;;;;1.08;0.98;;;17.40;99.90;;;;;;7355390;32;20202;-56
2023/07/01 11:41:27;;;;;;;2.37;1.10;;;17.50;99.90;;;;;;7351392;32;20133;-56
2023/07/01 11:45:30;;;;;;;1.52;0.90;;;17.50;99.90;;;;;;7350026;32;20326;-55
2023/07/01 11:49:32;;;;;;;1.85;1.35;;;17.50;99.90;;;;;;7346439;32;20639;-56
2023/07/01 11:53:38;;;;;;;1.80;1.12;;;17.60;99.90;;;;;;7354761;32;20712;-56
2023/07/01 11:57:39;;;;;;;2.28;1.45;;;17.60;99.90;;;;;;7353683;32;20131;-56
2023/07/01 12:01:41;;;;;;;1.40;1.20;;;17.50;99.90;;;;;;7350123;32;20288;-56
2023/07/01 12:05:44;;;;;;;2.17;1.25;;;17.50;99.90;;;;;;7350681;32;20111;-56
2023/07/01 12:09:46;;;;;;;2.03;1.42;;;17.50;99.90;;;;;;7352529;32;20103;-56
2023/07/01 12:13:49;;;;;;;2.85;1.40;;;17.60;99.90;;;;;;7336167;32;20495;-57
2023/07/01 12:17:52;;;;;;;2.08;1.35;;;17.60;99.90;;;;;;7345652;32;20103;-56
2023/07/01 12:21:54;;;;;;;5.50;1.37;;;17.60;99.90;;;;;;7350898;32;20148;-56
2023/07/01 12:25:57;;;;;;;1.67;1.20;;;17.70;99.90;;;;;;7351680;32;20126;-56
2023/07/01 12:29:58;;;;;;;3.72;1.40;;;17.70;99.90;;;;;;7348373;32;20130;-59
2023/07/01 12:34:00;;;;;;;1.40;1.20;;;17.70;99.90;;;;;;7347849;32;20434;-60
2023/07/01 12:38:03;;;;;;;3.03;1.25;;;17.70;99.90;;;;;;7345481;32;20134;-59
2023/07/01 12:42:06;;;;;;;2.55;1.23;;;17.80;99.90;;;;;;7349427;32;20103;-60
2023/07/01 12:46:08;;;;;;;3.90;1.15;;;17.90;99.90;;;;;;7351829;32;20562;-60
2023/07/01 12:50:11;;;;;;;2.65;1.40;;;17.90;99.90;;;;;;7353396;32;20289;-56
2023/07/01 12:54:13;;;;;;;3.42;1.27;;;18.10;99.90;;;;;;7348456;32;20123;-56
2023/07/01 12:58:19;;;;;;;3.53;1.27;;;18.20;99.90;;;;;;7349893;32;20099;-56
2023/07/01 13:02:22;;;;;;;3.25;1.25;;;18.30;99.90;;;;;;7349293;32;20220;-56
2023/07/01 13:06:25;;;;;;;1.77;0.85;;;18.50;99.90;;;;;;7346551;32;20241;-56
2023/07/01 13:10:29;;;;;;;2.25;0.82;;;18.60;99.90;;;;;;7351067;32;20152;-56
2023/07/01 13:14:31;;;;;;;2.60;1.23;;;18.60;99.90;;;;;;7346315;32;20421;-57
2023/07/01 13:18:32;;;;;;;2.25;1.30;;;18.60;99.90;;;;;;7348688;32;20171;-56
2023/07/01 13:22:35;;;;;;;2.30;1.33;;;18.60;99.90;;;;;;7352916;32;20118;-65
2023/07/01 13:26:37;;;;;;;4.55;1.65;;;18.80;99.90;;;;;;7357305;32;20183;-63
2023/07/01 13:30:47;;;;;;;2.60;1.45;;;19.20;99.90;;;;;;7346903;32;20138;-63
2023/07/01 13:34:53;;;;;;;3.10;1.23;;;19.50;99.90;;;;;;7344925;32;20314;-63
2023/07/01 13:38:55;;;;;;;2.50;1.15;;;19.60;99.90;;;;;;7353264;32;20465;-56
2023/07/01 13:42:56;;;;;;;3.25;1.27;;;20.00;99.90;;;;;;7358851;32;20250;-57
2023/07/01 13:46:58;;;;;;;3.42;1.17;;;20.30;99.90;;;;;;7344576;32;20848;-58
2023/07/01 13:51:02;;;;;;;4.57;0.98;;;20.30;99.90;;;;;;7348168;32;20159;-56
2023/07/01 13:55:08;;;;;;;3.83;1.10;;;20.40;99.90;;;;;;7353372;32;20145;-56
2023/07/01 13:59:14;;;;;;;1.60;0.93;;;20.50;99.90;;;;;;7350714;32;20129;-56
2023/07/01 14:03:16;;;;;;;4.70;0.93;;;20.60;99.90;;;;;;7346653;32;20225;-56
2023/07/01 14:07:18;;;;;;;6.12;0.80;;;20.90;99.90;;;;;;7350653;32;20237;-56
2023/07/01 14:11:23;;;;;;;2.37;0.90;;;21.00;99.90;;;;;;7346821;32;20280;-56
2023/07/01 14:15:46;;;;;;;1.92;1.50;;;21.20;99.90;;;;;;7343603;32;20210;-56
2023/07/01 14:19:54;;;;;;;1.50;0.90;;;21.70;99.90;;;;;;7349231;32;20208;-54
2023/07/01 14:24:04;;;;;;;3.20;1.00;;;21.60;99.90;;;;;;7350605;32;20134;-54
2023/07/01 14:28:09;;;;;;;1.30;0.88;;;21.30;99.90;;;;;;7343731;32;20224;-56
2023/07/01 14:32:12;;;;;;;1.23;0.80;;;21.10;99.90;;;;;;7347350;32;20262;-58
2023/07/01 14:36:24;;;;;;;2.62;0.80;;;21.00;99.90;;;;;;7347155;32;20119;-57
2023/07/01 14:40:26;;;;;;;2.45;0.90;;;20.90;99.90;;;;;;7348060;32;20115;-57
2023/07/01 14:44:27;;;;;;;1.77;0.80;;;20.70;99.90;;;;;;7344363;32;20251;-60
2023/07/01 14:48:29;;;;;;;1.37;0.95;;;20.50;99.90;;;;;;7347495;32;20194;-56
2023/07/01 14:52:31;;;;;;;3.55;0.82;;;20.40;99.90;;;;;;7347886;32;20366;-56
2023/07/01 14:56:32;;;;;;;4.30;1.58;;;20.40;99.90;;;;;;7347900;32;20129;-57
2023/07/01 15:00:34;;;;;;;1.58;1.10;;;20.70;99.90;;;;;;7348420;32;20219;-56
2023/07/01 15:04:36;;;;;;;7.03;1.25;;;20.80;99.90;;;;;;7356242;32;20622;-55
2023/07/01 15:08:39;;;;;;;5.03;1.40;;;20.80;99.90;;;;;;7356280;32;20118;-56
2023/07/01 15:12:40;;;;;;;3.35;1.20;;;20.90;99.90;;;;;;7352471;32;20168;-57
2023/07/01 15:16:42;;;;;;;3.60;1.25;;;20.90;99.90;;;;;;7342497;32;20116;-57
2023/07/01 15:20:44;;;;;;;3.92;1.50;;;20.90;99.90;;;;;;7352638;32;20234;-58
2023/07/01 15:24:46;;;;;;;5.37;2.70;;;20.80;99.90;;;;;;7355896;32;20137;-58
2023/07/01 15:28:48;;;;;;;3.75;3.20;;;20.50;99.90;;;;;;7352518;32;20477;-58
2023/07/01 15:32:49;;;;;;;3.87;3.47;;;20.20;99.90;;;;;;7345226;32;20167;-58
2023/07/01 15:36:53;;;;;;;4.10;3.45;;;20.10;99.90;;;;;;7347323;32;20225;-57
2023/07/01 15:40:55;;;;;;;6.37;3.47;;;20.10;99.90;;;;;;7351929;32;20528;-58
2023/07/01 15:44:57;;;;;;;4.37;2.62;;;19.90;99.90;;;;;;7356761;32;20251;-59
2023/07/01 15:48:59;;;;;;;4.25;2.22;;;19.90;99.90;;;;;;7354270;32;20103;-58
2023/07/01 15:53:01;;;;;;;5.50;2.58;;;19.80;99.90;;;;;;7354157;32;20194;-57
2023/07/01 15:57:04;;;;;;;3.90;2.72;;;19.80;99.90;;;;;;7355274;32;20119;-57
2023/07/01 16:01:05;;;;;;;4.87;2.75;;;19.80;99.90;;;;;;7354419;32;20478;-57
2023/07/01 16:05:11;;;;;;;2.95;2.33;;;19.90;99.90;;;;;;7354414;32;20131;-57
2023/07/01 16:09:45;;;;;;;3.47;2.35;;;19.90;99.90;;;;;;7354469;32;20191;-57
2023/07/01 16:13:47;;;;;;;3.12;1.67;;;20.00;99.90;;;;;;7347404;32;20115;-58
2023/07/01 16:17:51;;;;;;;2.40;1.50;;;19.90;99.90;;;;;;7353681;32;20694;-57
2023/07/01 16:21:54;;;;;;;1.55;1.10;;;19.90;99.90;;;;;;7349742;32;20171;-56
2023/07/01 16:25:56;;;;;;;4.43;1.60;;;20.00;99.90;;;;;;7347177;32;20218;-57
2023/07/01 16:30:02;;;;;;;3.67;1.30;;;20.00;99.90;;;;;;7349974;32;20137;-57
2023/07/01 16:34:06;;;;;;;2.73;1.23;;;20.00;99.90;;;;;;7343219;32;20142;-57
2023/07/01 16:38:29;;;;;;;3.42;1.60;;;20.00;99.90;;;;;;7351196;32;20119;-57
2023/07/01 16:42:36;;;;;;;3.00;1.50;;;19.90;99.90;;;;;;7350180;32;20677;-56
2023/07/01 16:46:39;;;;;;;2.67;1.60;;;19.80;99.90;;;;;;7346804;32;20123;-57
2023/07/01 16:51:03;;;;;;;3.85;1.58;;;19.80;99.90;;;;;;7347259;32;20210;-57
2023/07/01 16:55:25;;;;;;;2.72;1.50;;;19.60;99.90;;;;;;7350318;32;20134;-55
2023/07/01 16:59:38;;;;;;;3.58;1.62;;;19.50;99.90;;;;;;7349862;32;20141;-56
2023/07/01 17:03:43;;;;;;;4.82;1.70;;;19.50;99.90;;;;;;7347738;32;20187;-56
2023/07/01 17:07:46;;;;;;;4.55;1.58;;;19.60;99.90;;;;;;7345505;32;20167;-56
2023/07/01 17:11:49;;;;;;;2.67;1.67;;;19.40;99.90;;;;;;7345340;32;20531;-56
2023/07/01 17:15:52;;;;;;;3.33;1.83;;;19.40;99.90;;;;;;7351048;32;20181;-56
2023/07/01 17:20:01;;;;;;;4.20;1.95;;;19.20;99.90;;;;;;7345934;32;20189;-56
2023/07/01 17:24:03;;;;;;;2.70;1.65;;;18.90;99.90;;;;;;7339066;32;20136;-57
2023/07/01 17:28:05;;;;;;;3.53;1.80;;;18.80;99.90;;;;;;7353691;32;20119;-56
2023/07/01 17:32:07;;;;;;;2.05;1.50;;;18.80;99.90;;;;;;7344631;32;20195;-55
2023/07/01 17:36:09;;;;;;;3.53;1.77;;;18.60;99.90;;;;;;7352807;32;20115;-57
2023/07/01 17:40:12;;;;;;;2.47;1.70;;;18.60;99.90;;;;;;7349411;32;20149;-57
2023/07/01 17:44:13;;;;;;;2.95;1.62;;;18.60;99.90;;;;;;7343245;32;20220;-57
2023/07/01 17:48:15;;;;;;;5.22;1.77;;;18.60;99.90;;;;;;7343316;32;20115;-57
2023/07/01 17:52:17;;;;;;;3.05;1.70;;;18.50;99.90;;;;;;7345639;32;20992;-57
2023/07/01 17:56:19;;;;;;;2.25;1.50;;;18.50;99.90;;;;;;7344524;32;20124;-57
2023/07/01 18:00:21;;;;;;;2.45;1.85;;;18.50;99.90;;;;;;7347758;32;20139;-57
2023/07/01 18:04:23;;;;;;;2.35;1.55;;;18.50;99.90;;;;;;7335520;32;20111;-57
2023/07/01 18:08:24;;;;;;;3.83;1.60;;;18.60;99.90;;;;;;7337340;32;20581;-58
2023/07/01 18:12:26;;;;;;;2.75;1.48;;;18.60;99.90;;;;;;7338502;32;20111;-57
2023/07/01 18:16:28;;;;;;;4.85;2.08;;;18.40;99.90;;;;;;7342612;32;20138;-57
2023/07/01 18:20:30;;;;;;;4.65;1.70;;;18.50;99.90;;;;;;7347670;32;20103;-57
2023/07/01 18:24:50;;;;;;;3.37;1.50;;;18.50;99.90;;;;;;7351758;32;20265;-57
2023/07/01 18:28:51;;;;;;;2.85;1.80;;;18.50;99.90;;;;;;7349593;32;20250;-57
2023/07/01 18:32:53;;;;;;;2.72;1.37;;;18.50;99.90;;;;;;7348356;32;20136;-57
2023/07/01 18:36:55;;;;;;;3.92;1.65;;;18.50;99.90;;;;;;7349402;32;20585;-57
2023/07/01 18:40:59;;;;;;;2.60;1.92;;;18.50;99.90;;;;;;7355804;32;20158;-56
2023/07/01 18:45:00;;;;;;;4.57;1.60;;;18.50;99.90;;;;;;7353626;32;20103;-56
2023/07/01 18:49:02;;;;;;;3.22;1.90;;;18.50;99.90;;;;;;7353406;32;20211;-57
2023/07/01 18:53:04;;;;;;;2.10;1.45;;;18.40;99.90;;;;;;7349551;32;20115;-56
2023/07/01 18:57:06;;;;;;;2.72;1.40;;;18.40;99.90;;;;;;7358978;32;20141;-56
2023/07/01 19:01:08;;;;;;;5.25;1.23;;;18.40;99.90;;;;;;7344263;32;20537;-56
2023/07/01 19:05:10;;;;;;;1.70;1.00;;;18.40;99.90;;;;;;7350771;32;20267;-56
2023/07/01 19:09:12;;;;;;;3.05;1.12;;;18.30;99.90;;;;;;7351014;32;20176;-56
2023/07/01 19:13:14;;;;;;;1.80;1.10;;;18.20;99.90;;;;;;7346695;32;20337;-57
2023/07/01 19:17:19;;;;;;;2.30;1.17;;;18.10;99.90;;;;;;7345870;32;20163;-56
2023/07/01 19:21:20;;;;;;;1.58;1.05;;;18.00;99.90;;;;;;7353070;32;20126;-57
2023/07/01 19:25:23;;;;;;;2.33;0.93;;;17.80;99.90;;;;;;7357720;32;20179;-57
2023/07/01 19:29:27;;;;;;;2.70;1.05;;;17.80;99.90;;;;;;7356189;32;20480;-57
2023/07/01 19:33:28;;;;;;;1.77;0.90;;;17.80;99.90;;;;;;7352194;32;20238;-56
2023/07/01 19:37:30;;;;;;;1.33;1.02;;;17.80;99.90;;;;;;7350617;32;20251;-56
2023/07/01 19:41:32;;;;;;;1.10;1.00;;;17.80;99.90;;;;;;7356249;32;20221;-57
2023/07/01 19:45:34;;;;;;;1.77;1.27;;;17.60;99.90;;;;;;7349261;32;20138;-56
2023/07/01 19:49:36;;;;;;;2.92;1.30;;;17.60;99.90;;;;;;7350912;32;20133;-56
2023/07/01 19:53:38;;;;;;;2.08;1.50;;;17.60;99.90;;;;;;7336943;32;20175;-56
2023/07/01 19:57:40;;;;;;;1.33;0.88;;;17.60;99.90;;;;;;7352759;32;20603;-57
2023/07/01 20:01:41;;;;;;;3.55;1.40;;;17.50;99.90;;;;;;7351472;32;20115;-56
2023/07/01 20:05:44;;;;;;;1.37;1.25;;;17.50;99.90;;;;;;7354644;32;20152;-56
2023/07/01 20:09:47;;;;;;;1.85;1.40;;;17.50;99.90;;;;;;7352079;32;20450;-55
2023/07/01 20:13:49;;;;;;;3.30;1.40;;;17.50;99.90;;;;;;7347278;32;20116;-56
2023/07/01 20:17:54;;;;;;;4.37;1.65;;;17.40;99.90;;;;;;7348239;32;20122;-55
2023/07/01 20:21:57;;;;;;;3.55;2.10;;;17.40;99.90;;;;;;7343380;32;20142;-55
2023/07/01 20:25:58;;;;;;;2.45;1.70;;;17.40;99.90;;;;;;7349509;32;20158;-56
2023/07/01 20:30:00;;;;;;;2.22;1.52;;;17.30;99.90;;;;;;7347418;32;20186;-56
2023/07/01 20:34:02;;;;;;;6.82;1.73;;;17.40;99.90;;;;;;7350697;32;20682;-55
2023/07/01 20:38:04;;;;;;;3.83;1.20;;;17.40;99.90;;;;;;7353143;32;20111;-56
2023/07/01 20:42:05;;;;;;;1.67;1.27;;;17.40;99.90;;;;;;7343699;32;20118;-55
2023/07/01 20:46:11;;;;;;;1.77;1.50;;;17.30;99.90;;;;;;7344098;32;20542;-54
2023/07/01 20:50:12;;;;;;;4.47;1.60;;;17.30;99.90;;;;;;7342361;32;20216;-56
2023/07/01 20:54:14;;;;;;;2.12;1.83;;;17.30;99.90;;;;;;7339480;32;20111;-55
2023/07/01 20:58:16;;;;;;;1.65;1.40;;;17.40;99.90;;;;;;7344150;32;20107;-56
2023/07/01 21:02:18;;;;;;;3.28;1.60;;;17.40;99.90;;;;;;7349941;32;20637;-55
2023/07/01 21:06:20;;;;;;;2.58;1.37;;;17.40;99.90;;;;;;7344988;32;20127;-55
2023/07/01 21:10:22;;;;;;;1.50;1.35;;;17.30;99.90;;;;;;7349669;32;20286;-56